Goloson International Airport
MHLC : now visible

Airfield :











YOU CAN JOIN US ON...

 
LOGIN :

Register | Disclaimer

   EN    FR    IT 

 









Legend :    VFR   Marginal VFR   IFR   Intensive IFR   Very Intensive IFR
Visi :
Ceiling :
>= 8 km
>= 3000ft
5 to 8 km
1000 to 3000 ft
1500m to 5 km
500 to 1000 ft
800 to 1500m
200 to 500 ft
< 800m
< 200 ft
Symbols :   Thunderstorms  Fog  Heavy snow  Heavy precipitations  Wind > 20 kt






- Airport Elevation : 49 ft
- IATA code : LCE


MHLC - Goloson International

CURRENT METAR :
  • 130600Z 17003KT 9999 FEW030 21/20 Q1014 A2995 NOSIG

EXPIRED METARs :
  • 130500Z 07003KT 9999 FEW028 22/20 Q1015 A2997 NOSIG

TAF TAF MHLC
Valid from the 13 at 06:00 until the 14 at 06:00 UTC


130315Z 1306/1406 23008KT 9999 FEW022 TX30/1319Z TN23/1312Z
BECMG 1317/1319 35010KT SCT026
PROB30
TEMPO 1321/1401 6000 -RA SCT026TCU BKN070
BECMG 1401/1403 23005KT 9999 NSW SCT022 SCT070



MET'MAP, your aeronautical weather chart ! - Copyright ORBIFLY December 2007 - Disclaimer

ORBIFLY MET'MAP TEAM :

Programming & Development : Alexandra Zaïnal
Concept & original design : Baudouin d'Aumeries
Assistance for programming : Marc-Olivier Méhu
Technical & hardware support : Manuel Goepfert

Contact : metmap@orbifly.com




SOURCES & CREDITS :

   NOAA       Earth
Advisory